Flight Track Log - Related Links

Times and Time Zones

All times are in EDT time to prevent confusion due to time zone crossing. See the RPA1631 flight status page for this flight to view local times or setup timezone preferences in your user account.

Time Position Orientation Groundspeed Altitude Reporting Facility
EDT Latitude Longitude Course Direction KTS MPH feet Rate Location/Type
Fri 09:07:36 AM 43.1842 -89.3869 316° Northwest 188 216 3,200  Level Chicago Center
Fri 09:08:38 AM 43.2347 -89.4539 316° Northwest 220 253 5,600 2,613 Climbing Chicago Center
Fri 09:09:40 AM 43.2597 -89.5522 289° West 275 316 8,600 2,780 Climbing Chicago Center
Fri 09:10:41 AM 43.2547 -89.6642 267° West 288 331 11,300 2,585 Climbing Chicago Center
Fri 09:11:43 AM 43.2503 -89.7897 267° West 326 375 13,900 2,613 Climbing Chicago Center
Fri 09:12:45 AM 43.2458 -89.9211 267° West 341 392 16,700 2,585 Climbing Chicago Center
Fri 09:13:46 AM 43.2408 -90.0553 267° West 350 403 19,200 2,537 Climbing Chicago Center
Fri 09:14:48 AM 43.2369 -90.2139 268° West 358 412 21,900 2,177 Climbing Chicago Center
Fri 09:15:50 AM 43.2319 -90.3569 267° West 373 429 23,700 1,935 Climbing Chicago Center
Fri 09:16:52 AM 43.2292 -90.5033 269° West 385 443 25,900 1,900 Climbing Chicago Center
Fri 09:17:50 AM 43.2228 -90.6469 267° West 385 443 27,500 1,426 Climbing Minneapolis Center
Fri 09:18:54 AM 43.2169 -90.7969 267° West 393 452 28,800 1,344 Climbing Minneapolis Center
Fri 09:19:55 AM 43.2114 -90.9531 267° West 407 468 30,300 1,574 Climbing Minneapolis Center
Fri 09:20:56 AM 43.2056 -91.1056 267° West 407 468 32,000 1,623 Climbing Minneapolis Center
Fri 09:21:57 AM 43.1997 -91.2567 267° West 404 465 33,600 1,561 Climbing Minneapolis Center
Fri 09:22:59 AM 43.1931 -91.4314 267° West 392 451 35,200 1,171 Climbing Minneapolis Center
Fri 09:24:00 AM 43.1869 -91.5747 267° West 384 442 36,000 393 Climbing Minneapolis Center
Fri 09:25:01 AM 43.1800 -91.7217 266° West 388 447 36,000  Level Minneapolis Center
Fri 09:26:03 AM 43.1722 -91.8686 266° West 392 451 36,000  Level Minneapolis Center
Fri 09:27:04 AM 43.1653 -92.0169 266° West 394 453 36,000  Level Minneapolis Center
Fri 09:28:05 AM 43.1578 -92.1625 266° West 390 449 36,000  Level Minneapolis Center
Fri 09:29:07 AM 43.1492 -92.3375 266° West 389 448 36,000  Level Minneapolis Center
Fri 09:30:08 AM 43.1400 -92.4864 265° West 396 456 36,000  Level Minneapolis Center
Fri 09:31:09 AM 43.1333 -92.6344 267° West 395 455 36,000  Level Minneapolis Center
Fri 09:32:11 AM 43.1244 -92.7839 265° West 396 456 36,000  Level Minneapolis Center
Fri 09:33:12 AM 43.1167 -92.9331 266° West 396 456 36,000  Level Minneapolis Center
Fri 09:34:13 AM 43.1092 -93.0811 266° West 395 455 36,000  Level Minneapolis Center
Fri 09:35:15 AM 43.0994 -93.2597 266° West 395 455 36,000  Level Minneapolis Center
Fri 09:36:16 AM 43.0894 -93.4083 265° West 395 455 36,000  Level Minneapolis Center
Fri 09:37:17 AM 43.0744 -93.5544 262° West 392 451 36,000  Level Minneapolis Center
Fri 09:38:19 AM 43.0597 -93.7025 262° West 395 455 36,000  Level Minneapolis Center
Fri 09:39:20 AM 43.0456 -93.8511 263° West 397 457 36,000  Level Minneapolis Center
Fri 09:40:21 AM 43.0311 -93.9986 262° West 397 457 36,000  Level Minneapolis Center
Fri 09:41:23 AM 43.0178 -94.1464 263° West 396 456 36,000  Level Minneapolis Center
Fri 09:42:24 AM 43.0019 -94.2953 262° West 400 460 36,000  Level Minneapolis Center
Fri 09:43:26 AM 42.9833 -94.4719 262° West 397 457 36,000  Level Minneapolis Center
Fri 09:44:27 AM 42.9681 -94.6319 263° West 398 458 36,000  Level Minneapolis Center
Fri 09:45:29 AM 42.9517 -94.7822 262° West 399 459 36,000  Level Minneapolis Center
Fri 09:46:30 AM 42.9347 -94.9344 261° West 405 466 36,000  Level Minneapolis Center
Fri 09:47:31 AM 42.9192 -95.0847 262° West 403 464 36,000  Level Minneapolis Center
Fri 09:48:33 AM 42.9019 -95.2392 261° West 408 470 36,000  Level Minneapolis Center
Fri 09:49:34 AM 42.8864 -95.3931 262° West 410 472 36,000  Level Minneapolis Center
Fri 09:50:36 AM 42.8683 -95.5467 261° West 412 474 36,000  Level Minneapolis Center
Fri 09:51:37 AM 42.8506 -95.7022 261° West 414 476 36,000  Level Minneapolis Center
Fri 09:52:39 AM 42.8333 -95.8569 261° West 414 476 36,000  Level Minneapolis Center
Fri 09:53:52 AM 42.8114 -96.0436 261° West 416 479 36,000  Level Minneapolis Center
Fri 09:54:54 AM 42.7747 -96.2233 255° West 413 475 36,000  Level Minneapolis Center
Fri 09:55:56 AM 42.7389 -96.3678 251° West 405 466 36,000  Level Minneapolis Center
Fri 09:56:57 AM 42.7031 -96.5058 251° West 409 471 36,000  Level Minneapolis Center
Fri 09:57:59 AM 42.6669 -96.6506 251° West 407 468 36,000  Level Minneapolis Center
Fri 09:59:00 AM 42.6297 -96.7958 251° West 408 470 36,000  Level Minneapolis Center
Fri 10:00:02 AM 42.5839 -96.9708 250° West 410 472 36,000  Level Minneapolis Center
Fri 10:01:03 AM 42.5450 -97.1200 251° West 416 479 36,000  Level Minneapolis Center
Fri 10:02:05 AM 42.5064 -97.2689 251° West 420 483 36,000  Level Minneapolis Center
Fri 10:03:06 AM 42.4669 -97.4147 250° West 416 479 36,000  Level Minneapolis Center
Fri 10:04:08 AM 42.4286 -97.5639 251° West 419 482 36,000  Level Minneapolis Center
Fri 10:05:09 AM 42.3894 -97.7086 250° West 413 475 36,000  Level Minneapolis Center
Fri 10:06:11 AM 42.3514 -97.8511 250° West 414 476 36,000  Level Minneapolis Center
Fri 10:07:12 AM 42.3036 -98.0281 250° West 418 481 36,000  Level Minneapolis Center
Fri 10:08:14 AM 42.2639 -98.1733 250° West 415 478 36,000  Level Minneapolis Center
Fri 10:09:15 AM 42.2233 -98.3189 249° West 414 476 36,000  Level Minneapolis Center
Fri 10:10:17 AM 42.1836 -98.4644 250° West 415 478 36,000  Level Minneapolis Center
Fri 10:11:19 AM 42.1431 -98.6108 250° West 417 480 36,000  Level Minneapolis Center
Fri 10:12:20 AM 42.1025 -98.7569 250° West 417 480 36,000  Level Minneapolis Center
Fri 10:13:22 AM 42.0622 -98.9031 250° West 419 482 36,000  Level Minneapolis Center
Fri 10:14:23 AM 42.0211 -99.0503 249° West 421 484 36,000  Level Minneapolis Center
Fri 10:14:59 AM 41.9953 -99.1392 249° West 422 486 36,000  Level Denver Center
Fri 10:16:01 AM 41.9453 -99.3136 249° West 420 483 36,000  Level Denver Center
Fri 10:17:02 AM 41.9000 -99.4572 247° West 420 483 36,000  Level Denver Center
Fri 10:18:04 AM 41.8547 -99.6028 247° West 422 486 36,000  Level Denver Center
Fri 10:19:06 AM 41.8056 -99.7594 247° West 424 488 36,000  Level Denver Center
Fri 10:20:07 AM 41.7606 -99.9000 247° West 428 493 36,000  Level Denver Center
Fri 10:21:09 AM 41.7086 -100.0653 247° West 432 497 36,000  Level Denver Center
Fri 10:22:11 AM 41.6636 -100.2056 247° West 431 496 36,000  Level Denver Center
Fri 10:23:13 AM 41.6186 -100.3464 247° West 431 496 36,000  Level Denver Center
Fri 10:24:15 AM 41.5653 -100.5103 247° West 432 497 36,000  Level Denver Center
Fri 10:25:16 AM 41.5206 -100.6481 247° West 426 490 36,000  Level Denver Center
Fri 10:26:18 AM 41.4678 -100.8103 247° West 429 494 36,000  Level Denver Center
Fri 10:27:20 AM 41.4211 -100.9503 246° West 432 497 36,000  Level Denver Center
Fri 10:28:22 AM 41.3681 -101.1108 246° West 428 493 36,000  Level Denver Center
Fri 10:29:24 AM 41.3225 -101.2489 246° West 429 494 36,000  Level Denver Center
Fri 10:30:26 AM 41.2683 -101.4100 246° West 428 493 36,000  Level Denver Center
Fri 10:31:28 AM 41.2214 -101.5475 246° West 429 494 36,000  Level Denver Center
Fri 10:32:30 AM 41.1672 -101.7078 246° West 428 493 36,000  Level Denver Center
Fri 10:33:32 AM 41.1208 -101.8436 246° West 425 489 36,000  Level Denver Center
Fri 10:34:34 AM 41.0672 -102.0019 246° West 423 487 36,000  Level Denver Center
Fri 10:35:36 AM 41.0200 -102.1386 245° Southwest 426 490 36,000  Level Denver Center
Fri 10:36:38 AM 40.9658 -102.2964 246° West 424 488 36,000  Level Denver Center
Fri 10:37:40 AM 40.9169 -102.4333 245° Southwest 428 493 36,000  Level Denver Center
Fri 10:38:42 AM 40.8617 -102.5958 246° West 434 499 36,000  Level Denver Center
Fri 10:39:44 AM 40.8119 -102.7331 244° Southwest 433 498 36,000  Level Denver Center
Fri 10:40:46 AM 40.7583 -102.8908 246° West 425 489 36,000 -48 Level Denver Center
Fri 10:41:48 AM 40.7058 -103.0378 245° Southwest 424 488 35,900 -1,161 Descending Denver Center
Fri 10:42:50 AM 40.6556 -103.1781 245° Southwest 421 484 33,600 -2,274 Descending Denver Center
Fri 10:43:52 AM 40.6058 -103.3158 245° Southwest 415 478 31,200 -2,371 Descending Denver Center
Fri 10:44:54 AM 40.5544 -103.4600 245° Southwest 430 495 28,700 -2,206 Descending Denver Center
Fri 10:46:08 AM 40.5039 -103.6014 245° Southwest 425 489 26,200 -2,496 Descending Denver Center
Fri 10:47:11 AM 40.4403 -103.7778 245° Southwest 424 488 23,000 -2,592 Descending Denver Center
Fri 10:48:13 AM 40.3944 -103.9047 245° Southwest 385 443 20,800 -2,129 Descending Denver Center
Fri 10:49:15 AM 40.3564 -104.0294 248° West 341 392 18,600 -1,742 Descending Denver Center
Fri 10:50:17 AM 40.3558 -104.1375 270° West 303 349 17,200 -1,403 Descending Denver Center
Fri 10:51:19 AM 40.3542 -104.2450 269° West 280 322 15,700 -1,452 Descending Denver Center
Fri 10:52:21 AM 40.3239 -104.3400 247° West 286 329 14,200 -1,306 Descending Denver Center
Fri 10:53:23 AM 40.2875 -104.4322 243° Southwest 267 307 13,000 -1,161 Descending Denver Center
Fri 10:54:25 AM 40.2564 -104.5144 244° Southwest 256 295 11,800 -1,210 Descending Denver Center
Fri 10:55:27 AM 40.1933 -104.5714 215° Southwest 267 307 10,500 -1,210 Descending Denver Center
Fri 10:56:29 AM 40.1286 -104.6128 206° Southwest 261 300 9,300 -966 Descending Denver Center
Fri 10:57:56 AM 40.0542 -104.6594 206° Southwest 238 274 8,100 -805 Descending Denver Center
Fri 10:58:58 AM 39.9906 -104.6856 197° South 199 229 7,300 -919 Descending Denver Center
Fri 11:00:00 AM 39.9403 -104.6864 181° South 170 196 6,200 -871 Descending Denver Center
Fri 11:01:02 AM 39.9017 -104.6867 180° South 144 166 5,500 -677 Descending Denver Center
Fri 11:03:00 AM 39.8617 -104.6732 190° South  Level Estimated
Fri 11:10:00 AM 39.8617 -104.6732 190° South  Level Estimated
Fri 11:11:00 AM 39.8617 -104.6732 190° South  Level Estimated
Fri 11:12:00 AM 39.8617 -104.6732 190° South  Level Estimated

Login

Don't have an account? Register now (free) for customized features, flight alerts, and more!